Terminal Aerodrome Forecast
Issued by NWS

Home | Current Version | Previous Version | Graphics & Text | Print | Product List | Glossary On
Versions: 1 2 3 4 5 6 7 8 9 10 11 12 13
000
FTUS43 KICT 261737
TAFCNU
TAF
KCNU 261737Z 2618/2718 18011KT P6SM OVC100
     FM262200 18007KT P6SM SCT120
     FM270200 10004KT P6SM FEW200
     FM271600 13007KT P6SM BKN060=

USA.gov is the U.S. government's official web portal to all federal, state and local government web resources and services.